sensor_id;sensor_type;location;lat;lon;timestamp;temperature;humidity
47805;DHT22;33568;45.286;9.900;2024-03-22T00:00:42;14.30;99.90
47805;DHT22;33568;45.286;9.900;2024-03-22T00:03:09;14.30;99.90
47805;DHT22;33568;45.286;9.900;2024-03-22T00:05:35;14.20;99.90
47805;DHT22;33568;45.286;9.900;2024-03-22T00:08:02;14.20;99.90
47805;DHT22;33568;45.286;9.900;2024-03-22T00:10:28;14.20;99.90
47805;DHT22;33568;45.286;9.900;2024-03-22T00:12:54;14.10;99.90
47805;DHT22;33568;45.286;9.900;2024-03-22T00:15:21;14.10;99.90
47805;DHT22;33568;45.286;9.900;2024-03-22T00:17:48;14.10;99.90
47805;DHT22;33568;45.286;9.900;2024-03-22T00:20:14;14.10;99.90
47805;DHT22;33568;45.286;9.900;2024-03-22T00:22:41;14.00;99.90
47805;DHT22;33568;45.286;9.900;2024-03-22T00:25:08;14.00;99.90
47805;DHT22;33568;45.286;9.900;2024-03-22T00:27:35;14.00;99.90
47805;DHT22;33568;45.286;9.900;2024-03-22T00:30:01;14.00;99.90
47805;DHT22;33568;45.286;9.900;2024-03-22T00:32:27;14.00;99.90
47805;DHT22;33568;45.286;9.900;2024-03-22T00:34:53;13.90;99.90
47805;DHT22;33568;45.286;9.900;2024-03-22T00:37:20;14.00;99.90
47805;DHT22;33568;45.286;9.900;2024-03-22T00:39:46;14.00;99.90
47805;DHT22;33568;45.286;9.900;2024-03-22T00:42:12;13.90;99.90
47805;DHT22;33568;45.286;9.900;2024-03-22T00:44:39;13.90;99.90
47805;DHT22;33568;45.286;9.900;2024-03-22T00:47:05;13.90;99.90
47805;DHT22;33568;45.286;9.900;2024-03-22T00:49:32;13.80;99.90
47805;DHT22;33568;45.286;9.900;2024-03-22T00:51:58;13.80;99.90
47805;DHT22;33568;45.286;9.900;2024-03-22T00:54:24;13.80;99.90
47805;DHT22;33568;45.286;9.900;2024-03-22T00:56:50;13.80;99.90
47805;DHT22;33568;45.286;9.900;2024-03-22T00:59:17;13.80;99.90
47805;DHT22;33568;45.286;9.900;2024-03-22T01:01:44;13.80;99.90
47805;DHT22;33568;45.286;9.900;2024-03-22T01:04:10;13.80;99.90
47805;DHT22;33568;45.286;9.900;2024-03-22T01:06:36;13.90;99.90
47805;DHT22;33568;45.286;9.900;2024-03-22T01:09:03;13.80;99.90
47805;DHT22;33568;45.286;9.900;2024-03-22T01:11:29;13.80;99.90
47805;DHT22;33568;45.286;9.900;2024-03-22T01:13:55;13.80;99.90
47805;DHT22;33568;45.286;9.900;2024-03-22T01:16:22;13.80;99.90
47805;DHT22;33568;45.286;9.900;2024-03-22T01:18:48;13.80;99.90
47805;DHT22;33568;45.286;9.900;2024-03-22T01:21:14;13.80;99.90
47805;DHT22;33568;45.286;9.900;2024-03-22T01:23:41;13.80;99.90
47805;DHT22;33568;45.286;9.900;2024-03-22T01:26:07;13.80;99.90
47805;DHT22;33568;45.286;9.900;2024-03-22T01:28:33;13.70;99.90
47805;DHT22;33568;45.286;9.900;2024-03-22T01:31:00;13.70;99.90
47805;DHT22;33568;45.286;9.900;2024-03-22T01:33:27;13.70;99.90
47805;DHT22;33568;45.286;9.900;2024-03-22T01:35:53;13.60;99.90
47805;DHT22;33568;45.286;9.900;2024-03-22T01:38:20;13.60;99.90
47805;DHT22;33568;45.286;9.900;2024-03-22T01:40:46;13.50;99.90
47805;DHT22;33568;45.286;9.900;2024-03-22T01:43:12;13.40;99.90
47805;DHT22;33568;45.286;9.900;2024-03-22T01:45:39;13.40;99.90
47805;DHT22;33568;45.286;9.900;2024-03-22T01:48:06;13.40;99.90
47805;DHT22;33568;45.286;9.900;2024-03-22T01:50:32;13.40;99.90
47805;DHT22;33568;45.286;9.900;2024-03-22T01:52:59;13.40;99.90
47805;DHT22;33568;45.286;9.900;2024-03-22T01:55:26;13.40;99.90
47805;DHT22;33568;45.286;9.900;2024-03-22T01:57:53;13.40;99.90
47805;DHT22;33568;45.286;9.900;2024-03-22T02:00:21;13.40;99.90
47805;DHT22;33568;45.286;9.900;2024-03-22T02:02:48;13.40;99.90
47805;DHT22;33568;45.286;9.900;2024-03-22T02:05:15;13.40;99.90
47805;DHT22;33568;45.286;9.900;2024-03-22T02:07:45;13.40;99.90
47805;DHT22;33568;45.286;9.900;2024-03-22T02:10:12;13.40;99.90
47805;DHT22;33568;45.286;9.900;2024-03-22T02:12:39;13.40;99.90
47805;DHT22;33568;45.286;9.900;2024-03-22T02:15:07;13.30;99.90
47805;DHT22;33568;45.286;9.900;2024-03-22T02:17:34;13.20;99.90
47805;DHT22;33568;45.286;9.900;2024-03-22T02:20:02;13.10;99.90
47805;DHT22;33568;45.286;9.900;2024-03-22T02:22:29;13.10;99.90
47805;DHT22;33568;45.286;9.900;2024-03-22T02:24:56;13.10;99.90
47805;DHT22;33568;45.286;9.900;2024-03-22T02:27:22;13.10;99.90
47805;DHT22;33568;45.286;9.900;2024-03-22T02:29:49;13.00;99.90
47805;DHT22;33568;45.286;9.900;2024-03-22T02:32:15;13.00;99.90
47805;DHT22;33568;45.286;9.900;2024-03-22T02:34:42;13.00;99.90
47805;DHT22;33568;45.286;9.900;2024-03-22T02:37:08;13.10;99.90
47805;DHT22;33568;45.286;9.900;2024-03-22T02:39:34;13.10;99.90
47805;DHT22;33568;45.286;9.900;2024-03-22T02:42:01;13.10;99.90
47805;DHT22;33568;45.286;9.900;2024-03-22T02:44:27;13.00;99.90
47805;DHT22;33568;45.286;9.900;2024-03-22T02:46:53;13.00;99.90
47805;DHT22;33568;45.286;9.900;2024-03-22T02:49:20;13.00;99.90
47805;DHT22;33568;45.286;9.900;2024-03-22T02:51:46;13.10;99.90
47805;DHT22;33568;45.286;9.900;2024-03-22T02:54:13;13.10;99.90
47805;DHT22;33568;45.286;9.900;2024-03-22T02:56:40;13.10;99.90
47805;DHT22;33568;45.286;9.900;2024-03-22T02:59:06;13.00;99.90
47805;DHT22;33568;45.286;9.900;2024-03-22T03:01:32;13.00;99.90
47805;DHT22;33568;45.286;9.900;2024-03-22T03:03:59;12.90;99.90
47805;DHT22;33568;45.286;9.900;2024-03-22T03:06:25;12.90;99.90
47805;DHT22;33568;45.286;9.900;2024-03-22T03:08:51;12.90;99.90
47805;DHT22;33568;45.286;9.900;2024-03-22T03:11:18;12.90;99.90
47805;DHT22;33568;45.286;9.900;2024-03-22T03:13:44;12.90;99.90
47805;DHT22;33568;45.286;9.900;2024-03-22T03:16:10;12.90;99.90
47805;DHT22;33568;45.286;9.900;2024-03-22T03:18:37;12.90;99.90
47805;DHT22;33568;45.286;9.900;2024-03-22T03:21:03;12.80;99.90
47805;DHT22;33568;45.286;9.900;2024-03-22T03:23:29;12.80;99.90
47805;DHT22;33568;45.286;9.900;2024-03-22T03:25:57;12.80;99.90
47805;DHT22;33568;45.286;9.900;2024-03-22T03:28:23;12.80;99.90
47805;DHT22;33568;45.286;9.900;2024-03-22T03:30:52;12.80;99.90
47805;DHT22;33568;45.286;9.900;2024-03-22T03:33:18;12.70;99.90
47805;DHT22;33568;45.286;9.900;2024-03-22T03:35:47;12.60;99.90
47805;DHT22;33568;45.286;9.900;2024-03-22T03:38:14;12.70;99.90
47805;DHT22;33568;45.286;9.900;2024-03-22T03:40:40;12.60;99.90
47805;DHT22;33568;45.286;9.900;2024-03-22T03:43:08;12.60;99.90
47805;DHT22;33568;45.286;9.900;2024-03-22T03:45:38;12.60;99.90
47805;DHT22;33568;45.286;9.900;2024-03-22T03:48:05;12.60;99.90
47805;DHT22;33568;45.286;9.900;2024-03-22T03:50:31;12.60;99.90
47805;DHT22;33568;45.286;9.900;2024-03-22T03:52:57;12.70;99.90
47805;DHT22;33568;45.286;9.900;2024-03-22T03:55:24;12.70;99.90
47805;DHT22;33568;45.286;9.900;2024-03-22T03:57:50;12.70;99.90
47805;DHT22;33568;45.286;9.900;2024-03-22T04:00:19;12.70;99.90
47805;DHT22;33568;45.286;9.900;2024-03-22T04:02:45;12.70;99.90
47805;DHT22;33568;45.286;9.900;2024-03-22T04:05:12;12.60;99.90
47805;DHT22;33568;45.286;9.900;2024-03-22T04:07:38;12.60;99.90
47805;DHT22;33568;45.286;9.900;2024-03-22T04:10:06;12.60;99.90
47805;DHT22;33568;45.286;9.900;2024-03-22T04:12:32;12.60;99.90
47805;DHT22;33568;45.286;9.900;2024-03-22T04:14:58;12.60;99.90
47805;DHT22;33568;45.286;9.900;2024-03-22T04:17:25;12.50;99.90
47805;DHT22;33568;45.286;9.900;2024-03-22T04:19:51;12.60;99.90
47805;DHT22;33568;45.286;9.900;2024-03-22T04:22:18;12.50;99.90
47805;DHT22;33568;45.286;9.900;2024-03-22T04:24:44;12.50;99.90
47805;DHT22;33568;45.286;9.900;2024-03-22T04:27:11;12.50;99.90
47805;DHT22;33568;45.286;9.900;2024-03-22T04:29:37;12.50;99.90
47805;DHT22;33568;45.286;9.900;2024-03-22T04:32:04;12.40;99.90
47805;DHT22;33568;45.286;9.900;2024-03-22T04:34:30;12.40;99.90
47805;DHT22;33568;45.286;9.900;2024-03-22T04:36:56;12.40;99.90
47805;DHT22;33568;45.286;9.900;2024-03-22T04:39:23;12.30;99.90
47805;DHT22;33568;45.286;9.900;2024-03-22T04:41:50;12.30;99.90
47805;DHT22;33568;45.286;9.900;2024-03-22T04:44:16;12.30;99.90
47805;DHT22;33568;45.286;9.900;2024-03-22T04:46:43;12.20;99.90
47805;DHT22;33568;45.286;9.900;2024-03-22T04:49:10;12.20;99.90
47805;DHT22;33568;45.286;9.900;2024-03-22T04:51:36;12.30;99.90
47805;DHT22;33568;45.286;9.900;2024-03-22T04:54:03;12.30;99.90
47805;DHT22;33568;45.286;9.900;2024-03-22T04:56:29;12.30;99.90
47805;DHT22;33568;45.286;9.900;2024-03-22T04:58:55;12.30;99.90
47805;DHT22;33568;45.286;9.900;2024-03-22T05:01:22;12.30;99.90
47805;DHT22;33568;45.286;9.900;2024-03-22T05:03:49;12.20;99.90
47805;DHT22;33568;45.286;9.900;2024-03-22T05:06:16;12.20;99.90
47805;DHT22;33568;45.286;9.900;2024-03-22T05:08:42;12.30;99.90
47805;DHT22;33568;45.286;9.900;2024-03-22T05:11:09;12.30;99.90
47805;DHT22;33568;45.286;9.900;2024-03-22T05:13:35;12.30;99.90
47805;DHT22;33568;45.286;9.900;2024-03-22T05:16:02;12.30;99.90
47805;DHT22;33568;45.286;9.900;2024-03-22T05:18:28;12.30;99.90
47805;DHT22;33568;45.286;9.900;2024-03-22T05:20:55;12.30;99.90
47805;DHT22;33568;45.286;9.900;2024-03-22T05:23:21;12.30;99.90
47805;DHT22;33568;45.286;9.900;2024-03-22T05:25:47;12.30;99.90
47805;DHT22;33568;45.286;9.900;2024-03-22T05:28:15;12.20;99.90
47805;DHT22;33568;45.286;9.900;2024-03-22T05:30:41;12.30;99.90
47805;DHT22;33568;45.286;9.900;2024-03-22T05:33:08;12.30;99.90
47805;DHT22;33568;45.286;9.900;2024-03-22T05:35:34;12.30;99.90
47805;DHT22;33568;45.286;9.900;2024-03-22T05:38:00;12.30;99.90
47805;DHT22;33568;45.286;9.900;2024-03-22T05:40:27;12.30;99.90
47805;DHT22;33568;45.286;9.900;2024-03-22T05:42:53;12.30;99.90
47805;DHT22;33568;45.286;9.900;2024-03-22T05:45:20;12.30;99.90
47805;DHT22;33568;45.286;9.900;2024-03-22T05:47:46;12.30;99.90
47805;DHT22;33568;45.286;9.900;2024-03-22T05:50:13;12.40;99.90
47805;DHT22;33568;45.286;9.900;2024-03-22T05:52:40;12.40;99.90
47805;DHT22;33568;45.286;9.900;2024-03-22T05:55:08;12.40;99.90
47805;DHT22;33568;45.286;9.900;2024-03-22T05:57:35;12.50;99.90
47805;DHT22;33568;45.286;9.900;2024-03-22T06:00:02;12.60;99.90
47805;DHT22;33568;45.286;9.900;2024-03-22T06:02:32;12.60;99.90
47805;DHT22;33568;45.286;9.900;2024-03-22T06:04:59;12.70;99.90
47805;DHT22;33568;45.286;9.900;2024-03-22T06:07:25;12.90;99.90
47805;DHT22;33568;45.286;9.900;2024-03-22T06:09:52;13.00;99.90
47805;DHT22;33568;45.286;9.900;2024-03-22T06:12:18;13.10;99.90
47805;DHT22;33568;45.286;9.900;2024-03-22T06:14:45;13.20;99.90
47805;DHT22;33568;45.286;9.900;2024-03-22T06:17:13;13.30;99.90
47805;DHT22;33568;45.286;9.900;2024-03-22T06:19:39;13.40;99.90
47805;DHT22;33568;45.286;9.900;2024-03-22T06:22:06;13.40;99.90
47805;DHT22;33568;45.286;9.900;2024-03-22T06:24:32;13.30;99.90
47805;DHT22;33568;45.286;9.900;2024-03-22T06:26:58;13.20;99.90
47805;DHT22;33568;45.286;9.900;2024-03-22T06:29:25;13.20;99.90
47805;DHT22;33568;45.286;9.900;2024-03-22T06:31:51;13.10;99.90
47805;DHT22;33568;45.286;9.900;2024-03-22T06:34:18;13.00;99.90
47805;DHT22;33568;45.286;9.900;2024-03-22T06:36:45;13.10;99.90
47805;DHT22;33568;45.286;9.900;2024-03-22T06:39:11;13.10;99.90
47805;DHT22;33568;45.286;9.900;2024-03-22T06:41:37;13.20;99.90
47805;DHT22;33568;45.286;9.900;2024-03-22T06:44:04;13.30;99.90
47805;DHT22;33568;45.286;9.900;2024-03-22T06:46:30;13.30;99.90
47805;DHT22;33568;45.286;9.900;2024-03-22T06:48:57;13.40;99.90
47805;DHT22;33568;45.286;9.900;2024-03-22T06:51:24;13.30;99.90
47805;DHT22;33568;45.286;9.900;2024-03-22T06:53:50;13.30;99.90
47805;DHT22;33568;45.286;9.900;2024-03-22T06:56:17;13.40;99.90
47805;DHT22;33568;45.286;9.900;2024-03-22T06:58:44;13.40;99.90
47805;DHT22;33568;45.286;9.900;2024-03-22T07:01:10;13.50;99.90
47805;DHT22;33568;45.286;9.900;2024-03-22T07:03:37;13.50;99.90
47805;DHT22;33568;45.286;9.900;2024-03-22T07:06:03;13.50;99.90
47805;DHT22;33568;45.286;9.900;2024-03-22T07:08:32;13.60;99.90
47805;DHT22;33568;45.286;9.900;2024-03-22T07:10:58;13.60;99.90
47805;DHT22;33568;45.286;9.900;2024-03-22T07:13:25;13.70;99.90
47805;DHT22;33568;45.286;9.900;2024-03-22T07:15:52;13.80;99.90
47805;DHT22;33568;45.286;9.900;2024-03-22T07:18:18;13.90;99.90
47805;DHT22;33568;45.286;9.900;2024-03-22T07:20:45;14.00;99.90
47805;DHT22;33568;45.286;9.900;2024-03-22T07:23:11;14.00;99.90
47805;DHT22;33568;45.286;9.900;2024-03-22T07:25:38;14.20;99.90
47805;DHT22;33568;45.286;9.900;2024-03-22T07:28:04;14.30;99.90
47805;DHT22;33568;45.286;9.900;2024-03-22T07:30:31;14.40;99.90
47805;DHT22;33568;45.286;9.900;2024-03-22T07:32:57;14.40;99.90
47805;DHT22;33568;45.286;9.900;2024-03-22T07:35:23;14.60;99.90
47805;DHT22;33568;45.286;9.900;2024-03-22T07:37:51;14.60;99.90
47805;DHT22;33568;45.286;9.900;2024-03-22T07:40:17;14.80;99.90
47805;DHT22;33568;45.286;9.900;2024-03-22T07:42:43;15.00;99.90
47805;DHT22;33568;45.286;9.900;2024-03-22T07:45:10;15.00;99.90
47805;DHT22;33568;45.286;9.900;2024-03-22T07:47:36;15.20;99.90
47805;DHT22;33568;45.286;9.900;2024-03-22T07:50:04;15.20;99.90
47805;DHT22;33568;45.286;9.900;2024-03-22T07:52:30;15.40;99.90
47805;DHT22;33568;45.286;9.900;2024-03-22T07:54:56;15.50;99.90
47805;DHT22;33568;45.286;9.900;2024-03-22T07:57:23;15.50;99.90
47805;DHT22;33568;45.286;9.900;2024-03-22T07:59:50;15.70;99.90
47805;DHT22;33568;45.286;9.900;2024-03-22T08:02:16;15.80;99.90
47805;DHT22;33568;45.286;9.900;2024-03-22T08:04:43;15.90;99.90
47805;DHT22;33568;45.286;9.900;2024-03-22T08:07:09;16.00;99.90
47805;DHT22;33568;45.286;9.900;2024-03-22T08:09:36;16.10;99.90
47805;DHT22;33568;45.286;9.900;2024-03-22T08:12:02;16.20;99.90
47805;DHT22;33568;45.286;9.900;2024-03-22T08:14:29;16.30;99.90
47805;DHT22;33568;45.286;9.900;2024-03-22T08:16:56;16.30;99.90
47805;DHT22;33568;45.286;9.900;2024-03-22T08:19:22;16.40;99.90
47805;DHT22;33568;45.286;9.900;2024-03-22T08:21:48;16.50;99.90
47805;DHT22;33568;45.286;9.900;2024-03-22T08:24:15;16.60;99.90
47805;DHT22;33568;45.286;9.900;2024-03-22T08:26:41;16.70;99.90
47805;DHT22;33568;45.286;9.900;2024-03-22T08:29:15;16.90;99.90
47805;DHT22;33568;45.286;9.900;2024-03-22T08:31:42;17.10;99.90
47805;DHT22;33568;45.286;9.900;2024-03-22T08:34:08;17.30;99.90
47805;DHT22;33568;45.286;9.900;2024-03-22T08:36:34;17.50;99.90
47805;DHT22;33568;45.286;9.900;2024-03-22T08:39:01;17.60;99.90
47805;DHT22;33568;45.286;9.900;2024-03-22T08:41:28;17.80;99.90
47805;DHT22;33568;45.286;9.900;2024-03-22T08:43:54;18.00;99.90
47805;DHT22;33568;45.286;9.900;2024-03-22T08:46:20;18.10;99.50
47805;DHT22;33568;45.286;9.900;2024-03-22T08:48:48;18.30;99.90
47805;DHT22;33568;45.286;9.900;2024-03-22T08:51:15;18.40;99.90
47805;DHT22;33568;45.286;9.900;2024-03-22T08:53:41;18.70;99.90
47805;DHT22;33568;45.286;9.900;2024-03-22T08:56:09;18.80;99.30
47805;DHT22;33568;45.286;9.900;2024-03-22T08:58:35;19.10;98.80
47805;DHT22;33568;45.286;9.900;2024-03-22T09:01:02;19.20;98.30
47805;DHT22;33568;45.286;9.900;2024-03-22T09:03:28;19.50;97.70
47805;DHT22;33568;45.286;9.900;2024-03-22T09:05:56;19.60;97.00
47805;DHT22;33568;45.286;9.900;2024-03-22T09:08:23;19.70;96.40
47805;DHT22;33568;45.286;9.900;2024-03-22T09:10:49;19.90;96.00
47805;DHT22;33568;45.286;9.900;2024-03-22T09:13:16;20.30;95.30
47805;DHT22;33568;45.286;9.900;2024-03-22T09:15:42;20.40;94.20
47805;DHT22;33568;45.286;9.900;2024-03-22T09:18:09;20.60;93.30
47805;DHT22;33568;45.286;9.900;2024-03-22T09:20:35;20.90;92.60
47805;DHT22;33568;45.286;9.900;2024-03-22T09:23:02;21.10;91.60
47805;DHT22;33568;45.286;9.900;2024-03-22T09:25:30;21.10;91.10
47805;DHT22;33568;45.286;9.900;2024-03-22T09:27:56;21.30;90.80
47805;DHT22;33568;45.286;9.900;2024-03-22T09:30:22;21.50;89.80
47805;DHT22;33568;45.286;9.900;2024-03-22T09:32:49;21.60;89.00
47805;DHT22;33568;45.286;9.900;2024-03-22T09:35:17;21.70;88.60
47805;DHT22;33568;45.286;9.900;2024-03-22T09:37:44;21.60;87.00
47805;DHT22;33568;45.286;9.900;2024-03-22T09:40:11;21.80;86.20
47805;DHT22;33568;45.286;9.900;2024-03-22T09:42:38;22.00;84.90
47805;DHT22;33568;45.286;9.900;2024-03-22T09:45:11;22.20;84.10
47805;DHT22;33568;45.286;9.900;2024-03-22T09:47:38;22.20;82.10
47805;DHT22;33568;45.286;9.900;2024-03-22T09:50:07;22.40;82.10
47805;DHT22;33568;45.286;9.900;2024-03-22T09:52:37;22.50;81.80
47805;DHT22;33568;45.286;9.900;2024-03-22T09:55:05;22.70;81.00
47805;DHT22;33568;45.286;9.900;2024-03-22T09:57:35;22.80;79.90
47805;DHT22;33568;45.286;9.900;2024-03-22T10:00:06;23.00;78.30
47805;DHT22;33568;45.286;9.900;2024-03-22T10:02:38;23.20;78.00
47805;DHT22;33568;45.286;9.900;2024-03-22T10:05:05;23.50;77.10
47805;DHT22;33568;45.286;9.900;2024-03-22T10:07:32;23.60;75.90
47805;DHT22;33568;45.286;9.900;2024-03-22T10:10:00;23.70;74.20
47805;DHT22;33568;45.286;9.900;2024-03-22T10:12:26;23.70;73.00
47805;DHT22;33568;45.286;9.900;2024-03-22T10:14:53;23.80;72.40
47805;DHT22;33568;45.286;9.900;2024-03-22T10:17:20;23.90;71.90
47805;DHT22;33568;45.286;9.900;2024-03-22T10:19:48;24.00;72.00
47805;DHT22;33568;45.286;9.900;2024-03-22T10:22:16;24.20;71.20
47805;DHT22;33568;45.286;9.900;2024-03-22T10:24:44;24.20;70.60
47805;DHT22;33568;45.286;9.900;2024-03-22T10:27:10;24.30;70.00
47805;DHT22;33568;45.286;9.900;2024-03-22T10:29:37;24.40;69.60
47805;DHT22;33568;45.286;9.900;2024-03-22T10:32:04;24.40;69.10
47805;DHT22;33568;45.286;9.900;2024-03-22T10:34:31;24.50;68.60
47805;DHT22;33568;45.286;9.900;2024-03-22T10:37:00;24.30;68.30
47805;DHT22;33568;45.286;9.900;2024-03-22T10:39:28;24.40;68.40
47805;DHT22;33568;45.286;9.900;2024-03-22T10:41:54;24.60;68.50
47805;DHT22;33568;45.286;9.900;2024-03-22T10:44:21;24.80;68.10
47805;DHT22;33568;45.286;9.900;2024-03-22T10:46:50;25.10;67.80
47805;DHT22;33568;45.286;9.900;2024-03-22T10:49:20;25.20;67.10
47805;DHT22;33568;45.286;9.900;2024-03-22T10:51:53;25.10;66.10
47805;DHT22;33568;45.286;9.900;2024-03-22T10:54:24;25.10;65.00
47805;DHT22;33568;45.286;9.900;2024-03-22T10:56:53;25.40;65.70
47805;DHT22;33568;45.286;9.900;2024-03-22T10:59:22;25.60;64.90
47805;DHT22;33568;45.286;9.900;2024-03-22T11:01:51;25.60;64.80
47805;DHT22;33568;45.286;9.900;2024-03-22T11:04:21;25.40;64.00
47805;DHT22;33568;45.286;9.900;2024-03-22T11:06:50;25.40;64.00
47805;DHT22;33568;45.286;9.900;2024-03-22T11:09:27;25.60;63.00
47805;DHT22;33568;45.286;9.900;2024-03-22T11:11:55;25.90;61.00
47805;DHT22;33568;45.286;9.900;2024-03-22T11:14:22;25.70;62.20
47805;DHT22;33568;45.286;9.900;2024-03-22T11:16:50;25.80;61.60
47805;DHT22;33568;45.286;9.900;2024-03-22T11:19:17;25.80;61.40
47805;DHT22;33568;45.286;9.900;2024-03-22T11:21:43;25.90;61.00
47805;DHT22;33568;45.286;9.900;2024-03-22T11:24:09;25.70;61.10
47805;DHT22;33568;45.286;9.900;2024-03-22T11:26:37;25.80;61.10
47805;DHT22;33568;45.286;9.900;2024-03-22T11:29:04;26.00;60.70
47805;DHT22;33568;45.286;9.900;2024-03-22T11:31:30;25.90;60.60
47805;DHT22;33568;45.286;9.900;2024-03-22T11:33:57;25.60;60.20
47805;DHT22;33568;45.286;9.900;2024-03-22T11:36:23;25.50;60.10
47805;DHT22;33568;45.286;9.900;2024-03-22T11:38:50;25.40;59.60
47805;DHT22;33568;45.286;9.900;2024-03-22T11:41:19;25.40;59.50
47805;DHT22;33568;45.286;9.900;2024-03-22T11:43:47;25.40;59.30
47805;DHT22;33568;45.286;9.900;2024-03-22T11:46:17;25.50;59.00
47805;DHT22;33568;45.286;9.900;2024-03-22T11:48:44;25.70;57.90
47805;DHT22;33568;45.286;9.900;2024-03-22T11:51:10;25.40;58.20
47805;DHT22;33568;45.286;9.900;2024-03-22T11:53:37;25.50;58.80
47805;DHT22;33568;45.286;9.900;2024-03-22T11:56:05;25.60;59.10
47805;DHT22;33568;45.286;9.900;2024-03-22T11:58:34;25.70;59.30
47805;DHT22;33568;45.286;9.900;2024-03-22T12:01:00;25.90;58.90
47805;DHT22;33568;45.286;9.900;2024-03-22T12:03:28;26.00;59.40
47805;DHT22;33568;45.286;9.900;2024-03-22T12:05:54;26.00;58.80
47805;DHT22;33568;45.286;9.900;2024-03-22T12:08:21;25.80;58.40
47805;DHT22;33568;45.286;9.900;2024-03-22T12:10:48;25.80;58.90
47805;DHT22;33568;45.286;9.900;2024-03-22T12:13:14;26.10;59.10
47805;DHT22;33568;45.286;9.900;2024-03-22T12:15:41;26.40;58.60
47805;DHT22;33568;45.286;9.900;2024-03-22T12:18:07;26.40;58.20
47805;DHT22;33568;45.286;9.900;2024-03-22T12:20:34;26.50;58.90
47805;DHT22;33568;45.286;9.900;2024-03-22T12:23:00;26.50;57.80
47805;DHT22;33568;45.286;9.900;2024-03-22T12:25:27;26.70;57.70
47805;DHT22;33568;45.286;9.900;2024-03-22T12:27:53;26.70;57.50
47805;DHT22;33568;45.286;9.900;2024-03-22T12:30:19;26.90;57.50
47805;DHT22;33568;45.286;9.900;2024-03-22T12:32:46;27.10;57.30
47805;DHT22;33568;45.286;9.900;2024-03-22T12:35:12;27.00;57.30
47805;DHT22;33568;45.286;9.900;2024-03-22T12:37:38;26.80;57.30
47805;DHT22;33568;45.286;9.900;2024-03-22T12:40:06;26.70;56.90
47805;DHT22;33568;45.286;9.900;2024-03-22T12:42:34;26.40;56.60
47805;DHT22;33568;45.286;9.900;2024-03-22T12:45:01;26.00;56.40
47805;DHT22;33568;45.286;9.900;2024-03-22T12:47:27;25.60;56.70
47805;DHT22;33568;45.286;9.900;2024-03-22T12:49:54;25.70;57.10
47805;DHT22;33568;45.286;9.900;2024-03-22T12:52:20;25.70;56.80
47805;DHT22;33568;45.286;9.900;2024-03-22T12:54:46;25.90;57.10
47805;DHT22;33568;45.286;9.900;2024-03-22T12:57:13;26.20;56.90
47805;DHT22;33568;45.286;9.900;2024-03-22T12:59:39;26.20;56.60
47805;DHT22;33568;45.286;9.900;2024-03-22T13:02:06;26.10;56.80
47805;DHT22;33568;45.286;9.900;2024-03-22T13:04:33;26.00;57.20
47805;DHT22;33568;45.286;9.900;2024-03-22T13:07:00;25.90;57.40
47805;DHT22;33568;45.286;9.900;2024-03-22T13:09:26;25.80;57.60
47805;DHT22;33568;45.286;9.900;2024-03-22T13:11:52;26.00;57.60
47805;DHT22;33568;45.286;9.900;2024-03-22T13:14:19;26.00;56.90
47805;DHT22;33568;45.286;9.900;2024-03-22T13:16:46;25.90;56.20
47805;DHT22;33568;45.286;9.900;2024-03-22T13:19:13;25.90;56.00
47805;DHT22;33568;45.286;9.900;2024-03-22T13:21:41;25.70;55.90
47805;DHT22;33568;45.286;9.900;2024-03-22T13:24:07;25.60;55.80
47805;DHT22;33568;45.286;9.900;2024-03-22T13:26:35;25.40;55.40
47805;DHT22;33568;45.286;9.900;2024-03-22T13:29:02;25.40;54.80
47805;DHT22;33568;45.286;9.900;2024-03-22T13:31:28;25.30;54.00
47805;DHT22;33568;45.286;9.900;2024-03-22T13:33:54;25.20;53.10
47805;DHT22;33568;45.286;9.900;2024-03-22T13:36:21;25.00;52.50
47805;DHT22;33568;45.286;9.900;2024-03-22T13:38:48;24.80;52.50
47805;DHT22;33568;45.286;9.900;2024-03-22T13:41:15;24.80;52.20
47805;DHT22;33568;45.286;9.900;2024-03-22T13:43:41;24.80;51.80
47805;DHT22;33568;45.286;9.900;2024-03-22T13:46:10;24.60;51.20
47805;DHT22;33568;45.286;9.900;2024-03-22T13:48:44;24.50;51.00
47805;DHT22;33568;45.286;9.900;2024-03-22T13:51:10;24.40;51.20
47805;DHT22;33568;45.286;9.900;2024-03-22T13:53:37;24.50;51.30
47805;DHT22;33568;45.286;9.900;2024-03-22T13:56:04;24.60;51.00
47805;DHT22;33568;45.286;9.900;2024-03-22T13:58:30;24.70;50.70
47805;DHT22;33568;45.286;9.900;2024-03-22T14:00:56;24.60;50.30
47805;DHT22;33568;45.286;9.900;2024-03-22T14:03:23;24.70;50.50
47805;DHT22;33568;45.286;9.900;2024-03-22T14:05:49;24.80;50.60
47805;DHT22;33568;45.286;9.900;2024-03-22T14:08:16;24.70;50.60
47805;DHT22;33568;45.286;9.900;2024-03-22T14:10:42;24.60;50.90
47805;DHT22;33568;45.286;9.900;2024-03-22T14:13:09;24.80;51.10
47805;DHT22;33568;45.286;9.900;2024-03-22T14:15:35;24.70;50.90
47805;DHT22;33568;45.286;9.900;2024-03-22T14:18:02;24.80;51.10
47805;DHT22;33568;45.286;9.900;2024-03-22T14:20:29;24.80;51.00
47805;DHT22;33568;45.286;9.900;2024-03-22T14:22:55;24.90;51.10
47805;DHT22;33568;45.286;9.900;2024-03-22T14:25:22;24.80;50.90
47805;DHT22;33568;45.286;9.900;2024-03-22T14:27:48;24.70;50.40
47805;DHT22;33568;45.286;9.900;2024-03-22T14:30:15;24.60;50.30
47805;DHT22;33568;45.286;9.900;2024-03-22T14:32:41;24.60;50.00
47805;DHT22;33568;45.286;9.900;2024-03-22T14:35:10;24.60;49.90
47805;DHT22;33568;45.286;9.900;2024-03-22T14:37:37;24.80;50.10
47805;DHT22;33568;45.286;9.900;2024-03-22T14:40:04;24.70;49.90
47805;DHT22;33568;45.286;9.900;2024-03-22T14:42:32;24.60;49.90
47805;DHT22;33568;45.286;9.900;2024-03-22T14:44:59;24.50;50.10
47805;DHT22;33568;45.286;9.900;2024-03-22T14:47:26;24.40;50.20
47805;DHT22;33568;45.286;9.900;2024-03-22T14:49:52;24.40;50.40
47805;DHT22;33568;45.286;9.900;2024-03-22T14:52:18;24.30;50.40
47805;DHT22;33568;45.286;9.900;2024-03-22T14:54:47;24.10;50.60
47805;DHT22;33568;45.286;9.900;2024-03-22T14:57:14;24.10;50.80
47805;DHT22;33568;45.286;9.900;2024-03-22T14:59:40;24.00;50.60
47805;DHT22;33568;45.286;9.900;2024-03-22T15:02:07;24.00;50.70
47805;DHT22;33568;45.286;9.900;2024-03-22T15:04:34;24.10;50.40
47805;DHT22;33568;45.286;9.900;2024-03-22T15:07:00;24.00;50.10
47805;DHT22;33568;45.286;9.900;2024-03-22T15:09:27;24.00;50.20
47805;DHT22;33568;45.286;9.900;2024-03-22T15:11:54;24.10;50.20
47805;DHT22;33568;45.286;9.900;2024-03-22T15:14:26;24.20;50.30
47805;DHT22;33568;45.286;9.900;2024-03-22T15:16:58;24.30;50.40
47805;DHT22;33568;45.286;9.900;2024-03-22T15:19:24;24.30;50.20
47805;DHT22;33568;45.286;9.900;2024-03-22T15:21:51;24.20;50.10
47805;DHT22;33568;45.286;9.900;2024-03-22T15:24:18;24.10;50.00
47805;DHT22;33568;45.286;9.900;2024-03-22T15:26:45;24.10;50.00